^^
Marion, Virginia Banner
 

Adwolf, VA. Station Historical Data
[ Providing Data Since 6/07/2007 ]
Station Historical Data
Daily Summary for July 17, 2017 Units:  English    Metric   Both
« Previous Day
Next Day »
Daily Weekly Monthly Yearly Custom
  High: Low: Average:
Temperature: 89.3 °F 60.7 °F 74.2 °F
Dew Point: 68.7 °F 57.8 °F 62.2 °F
Humidity: 93% 35% 70%
Wind Speed: 10.4mph 0.0mph 3.1mph
Wind Gust: 10.4mph - -
Wind- - SSE
Pressure: 30.16 in 30.08 in -
Precipitation: 0.00 in    
Historical Graphs
 
 
Tabular Data for July 17, 2017
Time Temperature Dew Point Pressure Wind Wind Speed Wind Gust Humidity Rainfall Rate (Hourly) solar Conditions
00:00 64.4 °F 60.7 °F 30.11 in Calm     88% 0.00 in WeatherDisplay:10.37 W/m2 CLR
00:05 64.3 °F 60.9 °F 30.11 in Calm     89% 0.00 in WeatherDisplay:10.37 W/m2 CLR
00:10 64.2 °F 60.8 °F 30.11 in North 1.2 mph 1.2 mph 89% 0.00 in WeatherDisplay:10.37 W/m2 CLR
00:15 64.1 °F 60.8 °F 30.11 in Calm     89% 0.00 in WeatherDisplay:10.37 W/m2 CLR
00:20 64.1 °F 60.8 °F 30.11 in Calm     89% 0.00 in WeatherDisplay:10.37 W/m2 CLR
00:25 64.0 °F 60.7 °F 30.11 in North 2.3 mph 2.3 mph 89% 0.00 in WeatherDisplay:10.37 W/m2 CLR
00:30 63.9 °F 60.6 °F 30.11 in North 2.0 mph 2.0 mph 89% 0.00 in WeatherDisplay:10.37 W/m2 CLR
00:35 63.9 °F 60.6 °F 30.11 in North 2.3 mph 2.3 mph 89% 0.00 in WeatherDisplay:10.37 W/m2 CLR
00:40 63.9 °F 60.6 °F 30.11 in North 1.2 mph 1.2 mph 89% 0.00 in WeatherDisplay:10.37 W/m2 CLR
00:45 63.8 °F 60.5 °F 30.12 in Calm     89% 0.00 in WeatherDisplay:10.37 W/m2 CLR
00:50 63.6 °F 60.3 °F 30.12 in North 1.2 mph   89% 0.00 in WeatherDisplay:10.37 W/m2 CLR
00:55 63.5 °F 60.5 °F 30.12 in North 1.2 mph 1.2 mph 90% 0.00 in WeatherDisplay:10.37 W/m2 CLR
01:00 63.3 °F 60.3 °F 30.12 in North 1.2 mph   90% 0.00 in WeatherDisplay:10.37 W/m2 CLR
01:05 63.3 °F 60.3 °F 30.11 in North 1.2 mph 1.2 mph 90% 0.00 in WeatherDisplay:10.37 W/m2 CLR
01:10 63.3 °F 60.3 °F 30.11 in North 1.2 mph 1.2 mph 90% 0.00 in WeatherDisplay:10.37 W/m2 CLR
01:15 63.4 °F 60.4 °F 30.11 in North 1.2 mph 1.2 mph 90% 0.00 in WeatherDisplay:10.37 W/m2 CLR
01:20 63.4 °F 60.4 °F 30.11 in North 2.3 mph 2.3 mph 90% 0.00 in WeatherDisplay:10.37 W/m2 CLR
01:25 63.5 °F 60.5 °F 30.11 in North 2.3 mph 2.3 mph 90% 0.00 in WeatherDisplay:10.37 W/m2 CLR
01:30 63.4 °F 60.4 °F 30.11 in North 2.3 mph 2.3 mph 90% 0.00 in WeatherDisplay:10.37 W/m2 CLR
01:35 63.4 °F 60.1 °F 30.11 in North 1.2 mph 1.2 mph 89% 0.00 in WeatherDisplay:10.37 W/m2 CLR
01:40 63.3 °F 60.3 °F 30.11 in North 2.3 mph 2.3 mph 90% 0.00 in WeatherDisplay:10.37 W/m2 CLR
01:45 63.1 °F 59.8 °F 30.11 in North 2.3 mph 2.3 mph 89% 0.00 in WeatherDisplay:10.37 W/m2 CLR
01:50 62.9 °F 59.9 °F 30.11 in North 1.0 mph   90% 0.00 in WeatherDisplay:10.37 W/m2 CLR
01:55 62.7 °F 59.7 °F 30.11 in North 2.0 mph 2.0 mph 90% 0.00 in WeatherDisplay:10.37 W/m2 CLR
02:00 62.6 °F 59.6 °F 30.11 in North 1.2 mph 1.2 mph 90% 0.00 in WeatherDisplay:10.37 W/m2 CLR
02:05 62.6 °F 59.6 °F 30.11 in North 1.2 mph 1.2 mph 90% 0.00 in WeatherDisplay:10.37 W/m2 CLR
02:10 62.6 °F 59.9 °F 30.11 in North 2.3 mph 2.3 mph 91% 0.00 in WeatherDisplay:10.37 W/m2 CLR
02:15 62.6 °F 59.9 °F 30.10 in North 2.3 mph 2.3 mph 91% 0.00 in WeatherDisplay:10.37 W/m2 CLR
02:16 62.6 °F 59.9 °F 30.11 in North 2.3 mph 2.3 mph 91% 0.00 in WeatherDisplay:10.37 W/m2 CLR
02:21 62.6 °F 59.6 °F 30.11 in North 1.2 mph 1.2 mph 90% 0.00 in WeatherDisplay:10.37 W/m2 CLR
02:26 62.6 °F 59.6 °F 30.11 in North 2.3 mph 2.3 mph 90% 0.00 in WeatherDisplay:10.37 W/m2 CLR
02:31 62.5 °F 59.5 °F 30.11 in East 2.3 mph 2.3 mph 90% 0.00 in WeatherDisplay:10.37 W/m2 CLR
02:36 62.4 °F 59.4 °F 30.11 in East 2.3 mph 2.3 mph 90% 0.00 in WeatherDisplay:10.37 W/m2 CLR
02:41 62.4 °F 59.4 °F 30.11 in East 3.5 mph 3.5 mph 90% 0.00 in WeatherDisplay:10.37 W/m2 CLR
02:46 62.4 °F 59.4 °F 30.10 in ESE 3.5 mph 3.5 mph 90% 0.00 in WeatherDisplay:10.37 W/m2 CLR
02:51 62.4 °F 59.4 °F 30.10 in ESE 2.0 mph 2.0 mph 90% 0.00 in WeatherDisplay:10.37 W/m2 CLR
02:56 62.4 °F 59.4 °F 30.10 in ESE 2.3 mph 2.3 mph 90% 0.00 in WeatherDisplay:10.37 W/m2 CLR
03:01 62.4 °F 59.7 °F 30.09 in ESE 1.2 mph 1.2 mph 91% 0.00 in WeatherDisplay:10.37 W/m2 CLR
03:06 62.4 °F 59.7 °F 30.09 in ESE 2.3 mph 2.3 mph 91% 0.00 in WeatherDisplay:10.37 W/m2 CLR
03:11 62.4 °F 59.7 °F 30.09 in ESE 1.2 mph 1.2 mph 91% 0.00 in WeatherDisplay:10.37 W/m2 CLR
03:16 62.4 °F 59.7 °F 30.09 in ESE 3.5 mph 3.5 mph 91% 0.00 in WeatherDisplay:10.37 W/m2 CLR
03:21 62.4 °F 59.7 °F 30.09 in ESE 2.3 mph 2.3 mph 91% 0.00 in WeatherDisplay:10.37 W/m2 CLR
03:26 62.3 °F 59.3 °F 30.09 in ESE 1.2 mph 1.2 mph 90% 0.00 in WeatherDisplay:10.37 W/m2 CLR
03:31 62.2 °F 59.5 °F 30.09 in ESE 1.2 mph 1.2 mph 91% 0.00 in WeatherDisplay:10.37 W/m2 CLR
03:36 62.0 °F 59.3 °F 30.09 in Calm     91% 0.00 in WeatherDisplay:10.37 W/m2 CLR
03:41 61.9 °F 59.2 °F 30.09 in ESE 1.2 mph 1.2 mph 91% 0.00 in WeatherDisplay:10.37 W/m2 CLR
03:46 61.8 °F 59.1 °F 30.08 in ESE 1.2 mph   91% 0.00 in WeatherDisplay:10.37 W/m2 CLR
03:51 61.7 °F 59.0 °F 30.08 in ESE 2.3 mph 2.3 mph 91% 0.00 in WeatherDisplay:10.37 W/m2 CLR
03:56 61.8 °F 59.4 °F 30.08 in ESE 2.3 mph 2.3 mph 92% 0.00 in WeatherDisplay:10.37 W/m2 CLR
04:01 61.8 °F 59.4 °F 30.08 in ESE 2.3 mph 2.3 mph 92% 0.00 in WeatherDisplay:10.37 W/m2 CLR
04:06 61.8 °F 59.1 °F 30.08 in ESE 2.3 mph 2.3 mph 91% 0.00 in WeatherDisplay:10.37 W/m2 CLR
04:11 61.8 °F 59.1 °F 30.08 in ESE 2.3 mph 2.3 mph 91% 0.00 in WeatherDisplay:10.37 W/m2 CLR
04:16 61.7 °F 59.0 °F 30.08 in ESE 2.3 mph 2.3 mph 91% 0.00 in WeatherDisplay:10.37 W/m2 CLR
04:21 61.6 °F 58.9 °F 30.08 in ESE 1.2 mph 1.2 mph 91% 0.00 in WeatherDisplay:10.37 W/m2 CLR
04:26 61.5 °F 58.8 °F 30.09 in ESE 1.2 mph   91% 0.00 in WeatherDisplay:10.37 W/m2 CLR
04:31 61.3 °F 58.6 °F 30.09 in ESE 1.2 mph 1.2 mph 91% 0.00 in WeatherDisplay:10.37 W/m2 CLR
04:36 61.1 °F 58.4 °F 30.09 in ESE 2.0 mph 2.0 mph 91% 0.00 in WeatherDisplay:10.37 W/m2 CLR
04:41 61.0 °F 58.6 °F 30.09 in ESE 1.2 mph 1.2 mph 92% 0.00 in WeatherDisplay:10.37 W/m2 CLR
04:46 61.0 °F 58.6 °F 30.09 in ESE 1.2 mph 1.2 mph 92% 0.00 in WeatherDisplay:10.37 W/m2 CLR
04:51 60.9 °F 58.5 °F 30.08 in ESE 2.0 mph 2.0 mph 92% 0.00 in WeatherDisplay:10.37 W/m2 CLR
04:56 60.9 °F 58.5 °F 30.09 in ESE 3.0 mph 3.0 mph 92% 0.00 in WeatherDisplay:10.37 W/m2 CLR
05:01 61.0 °F 58.6 °F 30.09 in ESE 2.3 mph 2.3 mph 92% 0.00 in WeatherDisplay:10.37 W/m2 CLR
05:06 61.0 °F 58.6 °F 30.09 in ESE 2.3 mph 2.3 mph 92% 0.00 in WeatherDisplay:10.37 W/m2 CLR
05:11 61.0 °F 58.6 °F 30.09 in ESE 2.3 mph 2.3 mph 92% 0.00 in WeatherDisplay:10.37 W/m2 CLR
05:16 61.0 °F 58.6 °F 30.09 in ESE 2.3 mph 2.3 mph 92% 0.00 in WeatherDisplay:10.37 W/m2 CLR
05:21 61.1 °F 58.7 °F 30.09 in ESE 2.0 mph 2.0 mph 92% 0.00 in WeatherDisplay:10.37 W/m2 CLR
05:26 61.1 °F 58.7 °F 30.10 in ESE 3.5 mph 3.5 mph 92% 0.00 in WeatherDisplay:10.37 W/m2 CLR
05:31 61.1 °F 58.7 °F 30.10 in ESE 2.0 mph 2.0 mph 92% 0.00 in WeatherDisplay:10.37 W/m2 CLR
05:36 61.1 °F 59.0 °F 30.10 in ESE 2.3 mph 2.3 mph 93% 0.00 in WeatherDisplay:10.37 W/m2 CLR
05:41 61.2 °F 58.8 °F 30.10 in ESE 2.3 mph 2.3 mph 92% 0.00 in WeatherDisplay:10.37 W/m2 CLR
05:46 61.2 °F 58.8 °F 30.10 in ESE 2.3 mph 2.3 mph 92% 0.00 in WeatherDisplay:10.37 W/m2 CLR
05:51 61.1 °F 58.7 °F 30.10 in ESE 2.3 mph 2.3 mph 92% 0.00 in WeatherDisplay:10.37 W/m2 CLR
05:56 61.1 °F 58.7 °F 30.10 in ESE 1.2 mph 1.2 mph 92% 0.00 in WeatherDisplay:10.37 W/m2 CLR
06:01 61.0 °F 58.6 °F 30.10 in ESE 2.3 mph 2.3 mph 92% 0.00 in WeatherDisplay:10.37 W/m2 CLR
06:06 60.9 °F 58.5 °F 30.10 in ESE 2.3 mph 2.3 mph 92% 0.00 in WeatherDisplay:10.37 W/m2 CLR
06:11 60.9 °F 58.5 °F 30.10 in ESE 2.3 mph 2.3 mph 92% 0.00 in WeatherDisplay:10.37 W/m2 CLR
06:16 60.7 °F 58.3 °F 30.10 in ESE 2.3 mph 2.3 mph 92% 0.00 in WeatherDisplay:10.37 W/m2 CLR
06:21 60.8 °F 58.7 °F 30.11 in ESE 3.5 mph 3.5 mph 93% 0.00 in WeatherDisplay:10.37 W/m2 CLR
06:26 60.8 °F 58.7 °F 30.11 in ESE 1.2 mph 1.2 mph 93% 0.00 in WeatherDisplay:10.37 W/m2 CLR
06:31 60.8 °F 58.4 °F 30.11 in ESE 1.2 mph 1.2 mph 92% 0.00 in WeatherDisplay:10.37 W/m2 CLR
06:36 60.7 °F 58.6 °F 30.11 in ESE 1.2 mph 1.2 mph 93% 0.00 in WeatherDisplay:10.37 W/m2 CLR
06:41 60.8 °F 58.7 °F 30.11 in Calm     93% 0.00 in WeatherDisplay:10.37 W/m2 CLR
06:46 60.8 °F 58.7 °F 30.11 in Calm     93% 0.00 in WeatherDisplay:10.37 W/m2 CLR
06:51 60.8 °F 58.7 °F 30.11 in Calm     93% 0.00 in WeatherDisplay:10.37 W/m2 CLR
06:56 60.8 °F 58.7 °F 30.11 in Calm     93% 0.00 in WeatherDisplay:10.37 W/m2 CLR
07:00 60.9 °F 58.8 °F 30.12 in ESE 2.3 mph 2.3 mph 93% 0.00 in WeatherDisplay:10.37 W/m2 CLR
07:05 60.9 °F 58.8 °F 30.12 in ESE 2.3 mph 2.3 mph 93% 0.00 in WeatherDisplay:10.37 W/m2 CLR
07:10 61.3 °F 59.2 °F 30.12 in ESE 3.5 mph 3.5 mph 93% 0.00 in WeatherDisplay:10.37 W/m2 CLR
07:15 61.5 °F 59.1 °F 30.12 in ESE 2.3 mph 2.3 mph 92% 0.00 in WeatherDisplay:10.37 W/m2 CLR
07:20 61.6 °F 59.2 °F 30.12 in ESE 3.5 mph 3.5 mph 92% 0.00 in WeatherDisplay:10.37 W/m2 CLR
07:21 61.7 °F 59.3 °F 30.13 in ESE 3.5 mph 3.5 mph 92% 0.00 in WeatherDisplay:10.37 W/m2 CLR
07:26 61.9 °F 59.5 °F 30.13 in ESE 3.5 mph 3.5 mph 92% 0.00 in WeatherDisplay:10.37 W/m2 CLR
07:31 62.1 °F 59.7 °F 30.13 in ESE 3.0 mph 3.0 mph 92% 0.00 in WeatherDisplay:10.37 W/m2 CLR
07:36 62.3 °F 59.9 °F 30.13 in ESE 3.5 mph 3.5 mph 92% 0.00 in WeatherDisplay:10.37 W/m2 CLR
07:41 62.9 °F 60.5 °F 30.13 in ESE 3.5 mph 3.5 mph 92% 0.00 in WeatherDisplay:10.37 W/m2 CLR
07:46 63.3 °F 60.6 °F 30.13 in ESE 3.5 mph 3.5 mph 91% 0.00 in WeatherDisplay:10.37 W/m2 CLR
07:51 63.7 °F 61.0 °F 30.14 in ESE 3.5 mph 3.5 mph 91% 0.00 in WeatherDisplay:10.37 W/m2 CLR
07:56 64.2 °F 61.5 °F 30.14 in ESE 3.5 mph 3.5 mph 91% 0.00 in WeatherDisplay:10.37 W/m2 CLR
08:01 64.6 °F 61.6 °F 30.14 in East 3.5 mph 3.5 mph 90% 0.00 in WeatherDisplay:10.37 W/m2 CLR
08:06 65.0 °F 61.6 °F 30.14 in East 5.8 mph 5.8 mph 89% 0.00 in WeatherDisplay:10.37 W/m2 CLR
08:11 65.6 °F 62.2 °F 30.14 in East 3.5 mph 3.5 mph 89% 0.00 in WeatherDisplay:10.37 W/m2 CLR
08:16 66.2 °F 62.8 °F 30.13 in East 3.5 mph 3.5 mph 89% 0.00 in WeatherDisplay:10.37 W/m2 CLR
08:21 66.9 °F 62.9 °F 30.14 in NE 3.5 mph 3.5 mph 87% 0.00 in WeatherDisplay:10.37 W/m2 CLR
08:26 67.3 °F 63.3 °F 30.14 in NE 3.5 mph 3.5 mph 87% 0.00 in WeatherDisplay:10.37 W/m2 CLR
08:31 67.6 °F 63.6 °F 30.14 in NE 3.5 mph 3.5 mph 87% 0.00 in WeatherDisplay:10.37 W/m2 CLR
08:36 67.9 °F 63.8 °F 30.14 in NE 3.5 mph 3.5 mph 87% 0.00 in WeatherDisplay:10.37 W/m2 CLR
08:41 68.7 °F 64.3 °F 30.14 in NE 2.3 mph 2.3 mph 86% 0.00 in WeatherDisplay:10.37 W/m2 CLR
08:46 69.2 °F 64.5 °F 30.14 in NE 2.3 mph 2.3 mph 85% 0.00 in WeatherDisplay:10.37 W/m2 CLR
08:51 69.7 °F 64.9 °F 30.14 in NE 2.0 mph 2.0 mph 85% 0.00 in WeatherDisplay:10.37 W/m2 CLR
08:56 70.2 °F 65.1 °F 30.14 in NE 3.5 mph 3.5 mph 84% 0.00 in WeatherDisplay:10.37 W/m2 CLR
09:01 70.7 °F 65.2 °F 30.14 in NE 3.5 mph 3.5 mph 83% 0.00 in WeatherDisplay:10.37 W/m2 CLR
09:06 71.0 °F 65.9 °F 30.14 in NE 3.5 mph 3.5 mph 84% 0.00 in WeatherDisplay:10.37 W/m2 CLR
09:11 71.4 °F 65.9 °F 30.14 in NE 3.0 mph 3.0 mph 83% 0.00 in WeatherDisplay:10.37 W/m2 CLR
09:16 71.6 °F 65.8 °F 30.14 in NE 3.0 mph 3.0 mph 82% 0.00 in WeatherDisplay:10.37 W/m2 CLR
09:21 72.1 °F 66.3 °F 30.14 in NE 3.5 mph 3.5 mph 82% 0.00 in WeatherDisplay:10.37 W/m2 CLR
09:26 72.3 °F 65.7 °F 30.14 in NE 2.3 mph 2.3 mph 80% 0.00 in WeatherDisplay:10.37 W/m2 CLR
09:31 72.6 °F 65.7 °F 30.14 in NE 3.5 mph 3.5 mph 79% 0.00 in WeatherDisplay:10.37 W/m2 CLR
09:36 73.1 °F 66.2 °F 30.13 in NE 1.2 mph 1.2 mph 79% 0.00 in WeatherDisplay:10.37 W/m2 CLR
09:41 73.7 °F 66.7 °F 30.13 in NE 3.0 mph 3.0 mph 79% 0.00 in WeatherDisplay:10.37 W/m2 CLR
09:46 74.6 °F 66.9 °F 30.13 in NE 3.5 mph 3.5 mph 77% 0.00 in WeatherDisplay:10.37 W/m2 CLR
09:51 75.1 °F 66.6 °F 30.13 in NE 2.3 mph 2.3 mph 75% 0.00 in WeatherDisplay:10.37 W/m2 CLR
09:56 75.9 °F 67.4 °F 30.13 in NE 2.3 mph 2.3 mph 75% 0.00 in WeatherDisplay:10.37 W/m2 CLR
10:01 76.7 °F 67.4 °F 30.13 in NE 2.3 mph 2.3 mph 73% 0.00 in WeatherDisplay:10.37 W/m2 CLR
10:06 77.1 °F 66.9 °F 30.13 in NE 3.5 mph 3.5 mph 71% 0.00 in WeatherDisplay:10.37 W/m2 CLR
10:11 77.4 °F 68.0 °F 30.13 in NE 2.3 mph 2.3 mph 73% 0.00 in WeatherDisplay:10.37 W/m2 CLR
10:16 78.0 °F 67.4 °F 30.13 in NE 2.3 mph 2.3 mph 70% 0.00 in WeatherDisplay:10.37 W/m2 CLR
10:21 78.8 °F 68.1 °F 30.13 in SW 3.5 mph 3.5 mph 70% 0.00 in WeatherDisplay:10.37 W/m2 CLR
10:26 79.0 °F 67.9 °F 30.13 in South 4.6 mph 4.6 mph 69% 0.00 in WeatherDisplay:10.37 W/m2 CLR
10:31 79.4 °F 68.7 °F 30.13 in SW 3.5 mph 3.5 mph 70% 0.00 in WeatherDisplay:10.37 W/m2 CLR
10:36 79.7 °F 68.6 °F 30.13 in SW 3.5 mph 3.5 mph 69% 0.00 in WeatherDisplay:10.37 W/m2 CLR
10:41 79.8 °F 67.8 °F 30.13 in WSW 3.5 mph 3.5 mph 67% 0.00 in WeatherDisplay:10.37 W/m2 CLR
10:46 80.2 °F 68.2 °F 30.13 in SSW 2.3 mph 2.3 mph 67% 0.00 in WeatherDisplay:10.37 W/m2 CLR
10:51 80.6 °F 68.6 °F 30.13 in SSW 3.5 mph 3.5 mph 67% 0.00 in WeatherDisplay:10.37 W/m2 CLR
10:56 80.8 °F 68.3 °F 30.12 in West 3.5 mph 3.5 mph 66% 0.00 in WeatherDisplay:10.37 W/m2 CLR
11:01 80.6 °F 68.6 °F 30.13 in SW 3.5 mph 3.5 mph 67% 0.00 in WeatherDisplay:10.37 W/m2 CLR
11:06 80.9 °F 68.0 °F 30.13 in SSW 3.5 mph 3.5 mph 65% 0.00 in WeatherDisplay:10.37 W/m2 CLR
11:11 81.4 °F 68.0 °F 30.13 in West 4.6 mph 4.6 mph 64% 0.00 in WeatherDisplay:10.37 W/m2 CLR
11:16 81.8 °F 67.5 °F 30.13 in SW 4.6 mph 4.6 mph 62% 0.00 in WeatherDisplay:10.37 W/m2 CLR
11:21 81.8 °F 67.0 °F 30.13 in WSW 5.8 mph 5.8 mph 61% 0.00 in WeatherDisplay:10.37 W/m2 CLR
11:26 81.8 °F 66.5 °F 30.13 in SSW 5.8 mph 5.8 mph 60% 0.00 in WeatherDisplay:10.37 W/m2 CLR
11:31 81.6 °F 67.3 °F 30.12 in West 4.0 mph 4.0 mph 62% 0.00 in WeatherDisplay:10.37 W/m2 CLR
11:36 82.0 °F 66.7 °F 30.12 in SW 6.9 mph 6.9 mph 60% 0.00 in WeatherDisplay:10.37 W/m2 CLR
11:41 82.2 °F 67.4 °F 30.12 in West 4.0 mph 4.0 mph 61% 0.00 in WeatherDisplay:10.37 W/m2 CLR
11:46 82.3 °F 67.5 °F 30.13 in NNW 4.0 mph 4.0 mph 61% 0.00 in WeatherDisplay:10.37 W/m2 CLR
11:51 82.2 °F 66.4 °F 30.13 in West 9.2 mph 9.2 mph 59% 0.00 in WeatherDisplay:10.37 W/m2 CLR
11:56 82.4 °F 65.6 °F 30.12 in West 6.9 mph 6.9 mph 57% 0.00 in WeatherDisplay:10.37 W/m2 CLR
12:01 82.5 °F 65.2 °F 30.12 in South 3.5 mph 3.5 mph 56% 0.00 in WeatherDisplay:10.37 W/m2 CLR
12:06 83.0 °F 65.1 °F 30.12 in WSW 5.0 mph 5.0 mph 55% 0.00 in WeatherDisplay:10.37 W/m2 CLR
12:11 83.1 °F 64.7 °F 30.13 in WSW 10.4 mph 10.4 mph 54% 0.00 in WeatherDisplay:10.37 W/m2 CLR
12:16 83.6 °F 63.0 °F 30.13 in West 5.8 mph 5.8 mph 50% 0.00 in WeatherDisplay:10.37 W/m2 CLR
12:21 83.4 °F 61.0 °F 30.13 in SSW 6.9 mph 6.9 mph 47% 0.00 in WeatherDisplay:10.37 W/m2 CLR
12:26 83.7 °F 63.0 °F 30.13 in West 8.0 mph 8.0 mph 50% 0.00 in WeatherDisplay:10.37 W/m2 CLR
12:31 83.7 °F 63.6 °F 30.13 in SSW 5.8 mph 5.8 mph 51% 0.00 in WeatherDisplay:10.37 W/m2 CLR
12:36 84.0 °F 62.7 °F 30.13 in WSW 5.8 mph 5.8 mph 49% 0.00 in WeatherDisplay:10.37 W/m2 CLR
12:41 84.1 °F 62.8 °F 30.13 in West 5.8 mph 5.8 mph 49% 0.00 in WeatherDisplay:10.37 W/m2 CLR
12:46 84.4 °F 63.7 °F 30.13 in South 5.8 mph 5.8 mph 50% 0.00 in WeatherDisplay:10.37 W/m2 SCT
12:51 85.3 °F 62.7 °F 30.13 in SSW 6.9 mph 6.9 mph 47% 0.00 in WeatherDisplay:10.37 W/m2 SCT
12:56 85.4 °F 63.4 °F 30.13 in South 5.8 mph 5.8 mph 48% 0.00 in WeatherDisplay:10.37 W/m2 SCT
13:01 85.3 °F 62.7 °F 30.13 in WSW 4.0 mph 4.0 mph 47% 0.00 in WeatherDisplay:10.37 W/m2 SCT
13:06 84.6 °F 62.7 °F 30.12 in WSW 4.6 mph 4.6 mph 48% 0.00 in WeatherDisplay:10.37 W/m2 SCT
13:11 84.7 °F 61.6 °F 30.13 in SSW 4.0 mph 4.0 mph 46% 0.00 in WeatherDisplay:10.37 W/m2 SCT
13:16 84.9 °F 61.8 °F 30.13 in South 9.2 mph 9.2 mph 46% 0.00 in WeatherDisplay:10.37 W/m2 SCT
13:21 85.2 °F 60.8 °F 30.13 in South 4.6 mph 4.6 mph 44% 0.00 in WeatherDisplay:10.37 W/m2 SCT
13:26 85.5 °F 61.7 °F 30.13 in NW 5.8 mph 5.8 mph 45% 0.00 in WeatherDisplay:10.37 W/m2 SCT
13:31 85.7 °F 61.9 °F 30.13 in West 5.8 mph 5.8 mph 45% 0.00 in WeatherDisplay:10.37 W/m2 SCT
13:36 85.4 °F 60.3 °F 30.12 in SE 5.8 mph 5.8 mph 43% 0.00 in WeatherDisplay:10.37 W/m2 SCT
13:41 85.5 °F 62.9 °F 30.12 in WSW 3.5 mph 3.5 mph 47% 0.00 in WeatherDisplay:10.37 W/m2 SCT
13:46 86.0 °F 62.8 °F 30.12 in SW 5.8 mph 5.8 mph 46% 0.00 in WeatherDisplay:10.37 W/m2 SCT
13:51 86.4 °F 63.1 °F 30.12 in SSW 5.8 mph 5.8 mph 46% 0.00 in WeatherDisplay:10.37 W/m2 SCT
13:56 86.3 °F 61.8 °F 30.12 in SW 6.9 mph 6.9 mph 44% 0.00 in WeatherDisplay:10.37 W/m2 SCT
14:01 86.3 °F 61.8 °F 30.12 in West 4.6 mph 4.6 mph 44% 0.00 in WeatherDisplay:10.37 W/m2 SCT
14:06 86.3 °F 62.4 °F 30.12 in SW 5.8 mph 5.8 mph 45% 0.00 in WeatherDisplay:10.37 W/m2 SCT
14:11 86.3 °F 61.8 °F 30.12 in South 5.8 mph 5.8 mph 44% 0.00 in WeatherDisplay:10.37 W/m2 SCT
14:16 87.0 °F 62.4 °F 30.12 in South 3.5 mph 3.5 mph 44% 0.00 in WeatherDisplay:10.37 W/m2 SCT
14:21 87.8 °F 62.5 °F 30.12 in SSW 10.4 mph 10.4 mph 43% 0.00 in WeatherDisplay:10.37 W/m2 SCT
14:26 87.4 °F 62.1 °F 30.12 in SW 5.8 mph 5.8 mph 43% 0.00 in WeatherDisplay:10.37 W/m2 SCT
14:31 87.0 °F 61.8 °F 30.11 in WNW 3.5 mph 3.5 mph 43% 0.00 in WeatherDisplay:10.37 W/m2 SCT
14:36 87.6 °F 63.0 °F 30.11 in SW 3.5 mph 3.5 mph 44% 0.00 in WeatherDisplay:10.37 W/m2 SCT
14:41 88.0 °F 61.3 °F 30.11 in NE 3.5 mph 3.5 mph 41% 0.00 in WeatherDisplay:10.37 W/m2 SCT
14:46 88.1 °F 61.4 °F 30.10 in SE 3.5 mph 3.5 mph 41% 0.00 in WeatherDisplay:10.37 W/m2 SCT
14:51 88.6 °F 62.5 °F 30.10 in WSW 8.0 mph 8.0 mph 42% 0.00 in WeatherDisplay:10.37 W/m2 SCT
14:56 88.0 °F 61.3 °F 30.11 in SW 6.9 mph 6.9 mph 41% 0.00 in WeatherDisplay:10.37 W/m2 SCT
15:01 87.8 °F 61.8 °F 30.10 in WSW 3.5 mph 3.5 mph 42% 0.00 in WeatherDisplay:10.37 W/m2 SCT
15:06 87.4 °F 61.5 °F 30.11 in SSW 8.1 mph 8.1 mph 42% 0.00 in WeatherDisplay:10.37 W/m2 CLR
15:11 87.1 °F 61.9 °F 30.11 in West 3.5 mph 3.5 mph 43% 0.00 in WeatherDisplay:10.37 W/m2 CLR
15:16 87.4 °F 61.5 °F 30.11 in North 6.9 mph 6.9 mph 42% 0.00 in WeatherDisplay:10.37 W/m2 CLR
15:21 87.9 °F 62.6 °F 30.11 in NNW 4.6 mph 4.6 mph 43% 0.00 in WeatherDisplay:10.37 W/m2 CLR
15:26 88.3 °F 62.3 °F 30.11 in SW 4.6 mph 4.6 mph 42% 0.00 in WeatherDisplay:10.37 W/m2 SCT
15:31 88.7 °F 61.9 °F 30.10 in WNW 8.1 mph 8.1 mph 41% 0.00 in WeatherDisplay:10.37 W/m2 SCT
15:36 88.7 °F 61.9 °F 30.10 in SSW 5.8 mph 5.8 mph 41% 0.00 in WeatherDisplay:10.37 W/m2 SCT
15:41 89.3 °F 61.1 °F 30.10 in WSW 3.5 mph 3.5 mph 39% 0.00 in WeatherDisplay:10.37 W/m2 SCT
15:46 88.6 °F 61.2 °F 30.11 in SW 3.5 mph 3.5 mph 40% 0.00 in WeatherDisplay:10.37 W/m2 BKN
15:51 87.6 °F 61.0 °F 30.11 in South 8.1 mph 8.1 mph 41% 0.00 in WeatherDisplay:10.37 W/m2 BKN
15:56 87.2 °F 61.3 °F 30.11 in WNW 4.6 mph 4.6 mph 42% 0.00 in WeatherDisplay:10.37 W/m2 BKN
16:01 87.6 °F 61.6 °F 30.11 in North 5.0 mph 5.0 mph 42% 0.00 in WeatherDisplay:10.37 W/m2 BKN
16:06 88.0 °F 61.3 °F 30.11 in NW 6.9 mph 6.9 mph 41% 0.00 in WeatherDisplay:10.37 W/m2 OVC
16:11 88.2 °F 61.5 °F 30.11 in SSW 3.5 mph 3.5 mph 41% 0.00 in WeatherDisplay:10.37 W/m2 OVC
16:16 88.1 °F 60.7 °F 30.11 in NNW 2.3 mph 2.3 mph 40% 0.00 in WeatherDisplay:10.37 W/m2 OVC
16:21 88.6 °F 61.2 °F 30.11 in NNW 1.2 mph   40% 0.00 in WeatherDisplay:10.37 W/m2 OVC
16:26 88.9 °F 62.8 °F 30.11 in SE 3.5 mph 3.5 mph 42% 0.00 in WeatherDisplay:10.37 W/m2 BKN
16:31 87.5 °F 63.5 °F 30.12 in East 10.4 mph 10.4 mph 45% 0.00 in WeatherDisplay:10.37 W/m2 BKN
16:36 85.6 °F 62.4 °F 30.12 in South 6.9 mph 6.9 mph 46% 0.00 in WeatherDisplay:10.37 W/m2 BKN
16:41 83.8 °F 62.6 °F 30.12 in East 8.1 mph 8.1 mph 49% 0.00 in WeatherDisplay:10.37 W/m2 BKN
16:46 83.5 °F 62.9 °F 30.11 in SSE 10.4 mph 10.4 mph 50% 0.00 in WeatherDisplay:10.37 W/m2 CLR
16:51 84.1 °F 63.4 °F 30.10 in SE 8.1 mph 8.1 mph 50% 0.00 in WeatherDisplay:10.37 W/m2 CLR
16:53 84.7 °F 62.8 °F 30.10 in East 3.5 mph 3.5 mph 48% 0.00 in WeatherDisplay:10.37 W/m2 CLR
16:58 85.9 °F 62.7 °F 30.10 in SE 3.5 mph 3.5 mph 46% 0.00 in WeatherDisplay:10.37 W/m2 CLR
17:03 86.7 °F 62.1 °F 30.10 in SSE 5.8 mph 5.8 mph 44% 0.00 in WeatherDisplay:10.37 W/m2 CLR
17:08 86.3 °F 61.1 °F 30.10 in South 4.6 mph 4.6 mph 43% 0.00 in WeatherDisplay:10.37 W/m2 CLR
17:13 85.7 °F 59.9 °F 30.10 in SW 6.9 mph 6.9 mph 42% 0.00 in WeatherDisplay:10.37 W/m2 CLR
17:18 85.6 °F 59.2 °F 30.10 in SE 5.8 mph 5.8 mph 41% 0.00 in WeatherDisplay:10.37 W/m2 CLR
17:23 85.9 °F 59.4 °F 30.09 in SE 4.6 mph 4.6 mph 41% 0.00 in WeatherDisplay:10.37 W/m2 CLR
17:28 86.6 °F 58.7 °F 30.10 in South 3.5 mph 3.5 mph 39% 0.00 in WeatherDisplay:10.37 W/m2 CLR
17:33 87.2 °F 58.5 °F 30.09 in SSE 4.6 mph 4.6 mph 38% 0.00 in WeatherDisplay:10.37 W/m2 CLR
17:38 87.5 °F 58.7 °F 30.10 in South 5.0 mph 5.0 mph 38% 0.00 in WeatherDisplay:10.37 W/m2 CLR
17:43 88.1 °F 58.5 °F 30.10 in South 4.6 mph 4.6 mph 37% 0.00 in WeatherDisplay:10.37 W/m2 CLR
17:48 88.7 °F 58.3 °F 30.10 in SSW 3.5 mph 3.5 mph 36% 0.00 in WeatherDisplay:10.37 W/m2 CLR
17:53 89.0 °F 57.8 °F 30.10 in South 3.5 mph 3.5 mph 35% 0.00 in WeatherDisplay:10.37 W/m2 CLR
17:55 89.1 °F 57.8 °F 30.10 in South 2.3 mph 2.3 mph 35% 0.00 in WeatherDisplay:10.37 W/m2 CLR
18:00 89.2 °F 57.9 °F 30.10 in SE 3.5 mph 3.5 mph 35% 0.00 in WeatherDisplay:10.37 W/m2 CLR
18:05 89.0 °F 57.8 °F 30.09 in SE 2.3 mph 2.3 mph 35% 0.00 in WeatherDisplay:10.37 W/m2 CLR
18:10 88.7 °F 58.3 °F 30.09 in SE 2.3 mph 2.3 mph 36% 0.00 in WeatherDisplay:10.37 W/m2 CLR
18:15 88.6 °F 59.0 °F 30.09 in NNE 2.3 mph 2.3 mph 37% 0.00 in WeatherDisplay:10.37 W/m2 CLR
18:20 87.9 °F 59.8 °F 30.10 in East 4.6 mph 4.6 mph 39% 0.00 in WeatherDisplay:10.37 W/m2 CLR
18:21 87.8 °F 59.7 °F 30.10 in ESE 4.6 mph 4.6 mph 39% 0.00 in WeatherDisplay:10.37 W/m2 CLR
18:26 87.0 °F 60.4 °F 30.10 in ENE 3.5 mph 3.5 mph 41% 0.00 in WeatherDisplay:10.37 W/m2 CLR
18:31 86.1 °F 59.6 °F 30.10 in East 7.0 mph 7.0 mph 41% 0.00 in WeatherDisplay:10.37 W/m2 CLR
18:36 85.3 °F 60.2 °F 30.10 in East 8.1 mph 8.1 mph 43% 0.00 in WeatherDisplay:10.37 W/m2 CLR
18:41 84.7 °F 59.7 °F 30.10 in East 7.0 mph 7.0 mph 43% 0.00 in WeatherDisplay:10.37 W/m2 CLR
18:46 84.4 °F 60.1 °F 30.10 in East 3.5 mph 3.5 mph 44% 0.00 in WeatherDisplay:10.37 W/m2 CLR
18:51 84.2 °F 60.5 °F 30.10 in East 3.5 mph 3.5 mph 45% 0.00 in WeatherDisplay:10.37 W/m2 CLR
18:56 83.9 °F 60.9 °F 30.10 in East 6.9 mph 6.9 mph 46% 0.00 in WeatherDisplay:10.37 W/m2 CLR
19:01 83.7 °F 60.7 °F 30.10 in ENE 5.8 mph 5.8 mph 46% 0.00 in WeatherDisplay:10.37 W/m2 CLR
19:06 83.5 °F 62.3 °F 30.10 in ESE 3.5 mph 3.5 mph 49% 0.00 in WeatherDisplay:10.37 W/m2 CLR
19:11 83.5 °F 62.9 °F 30.10 in ESE 2.3 mph 2.3 mph 50% 0.00 in WeatherDisplay:10.37 W/m2 CLR
19:12 83.5 °F 62.9 °F 30.10 in ESE 2.3 mph 2.3 mph 50% 0.00 in WeatherDisplay:10.37 W/m2 CLR
19:17 83.5 °F 62.9 °F 30.10 in ESE 3.5 mph 3.5 mph 50% 0.00 in WeatherDisplay:10.37 W/m2 CLR
19:22 83.5 °F 62.9 °F 30.10 in ESE 2.0 mph 2.0 mph 50% 0.00 in WeatherDisplay:10.37 W/m2 CLR
19:27 83.3 °F 63.2 °F 30.10 in SSE 3.5 mph 3.5 mph 51% 0.00 in WeatherDisplay:10.37 W/m2 CLR
19:32 83.2 °F 63.7 °F 30.10 in SSE 3.5 mph 3.5 mph 52% 0.00 in WeatherDisplay:10.37 W/m2 CLR
19:37 83.0 °F 64.1 °F 30.10 in East 2.3 mph 2.3 mph 53% 0.00 in WeatherDisplay:10.37 W/m2 CLR
19:42 82.8 °F 64.4 °F 30.10 in ESE 1.2 mph 1.2 mph 54% 0.00 in WeatherDisplay:10.37 W/m2 CLR
19:47 82.6 °F 64.2 °F 30.11 in ESE 1.2 mph 1.2 mph 54% 0.00 in WeatherDisplay:10.37 W/m2 CLR
19:52 82.4 °F 64.6 °F 30.10 in ESE 1.2 mph 1.2 mph 55% 0.00 in WeatherDisplay:10.37 W/m2 CLR
19:57 82.2 °F 64.4 °F 30.11 in ESE 2.3 mph 2.3 mph 55% 0.00 in WeatherDisplay:10.37 W/m2 CLR
20:02 81.9 °F 64.6 °F 30.11 in ESE 2.3 mph 2.3 mph 56% 0.00 in WeatherDisplay:10.37 W/m2 CLR
20:07 81.7 °F 65.4 °F 30.11 in ESE 2.3 mph 2.3 mph 58% 0.00 in WeatherDisplay:10.37 W/m2 CLR
20:12 81.4 °F 65.2 °F 30.12 in East 3.5 mph 3.5 mph 58% 0.00 in WeatherDisplay:10.37 W/m2 CLR
20:17 81.2 °F 65.0 °F 30.11 in East 2.3 mph 2.3 mph 58% 0.00 in WeatherDisplay:10.37 W/m2 CLR
20:22 80.9 °F 64.7 °F 30.12 in East 2.3 mph 2.3 mph 58% 0.00 in WeatherDisplay:10.37 W/m2 CLR
20:27 80.7 °F 65.0 °F 30.11 in ENE 3.5 mph 3.5 mph 59% 0.00 in WeatherDisplay:10.37 W/m2 CLR
20:32 80.4 °F 64.7 °F 30.12 in East 2.3 mph 2.3 mph 59% 0.00 in WeatherDisplay:10.37 W/m2 CLR
20:37 80.1 °F 65.4 °F 30.12 in East 1.2 mph 1.2 mph 61% 0.00 in WeatherDisplay:10.37 W/m2 CLR
20:42 79.7 °F 65.0 °F 30.12 in ESE 2.3 mph 2.3 mph 61% 0.00 in WeatherDisplay:10.37 W/m2 CLR
20:47 79.3 °F 64.6 °F 30.12 in ESE 2.3 mph 2.3 mph 61% 0.00 in WeatherDisplay:10.37 W/m2 CLR
20:52 78.9 °F 65.6 °F 30.12 in ESE 1.2 mph 1.2 mph 64% 0.00 in WeatherDisplay:10.37 W/m2 CLR
20:57 78.3 °F 66.4 °F 30.13 in Calm     67% 0.00 in WeatherDisplay:10.37 W/m2 CLR
21:02 77.4 °F 66.0 °F 30.13 in Calm     68% 0.00 in WeatherDisplay:10.37 W/m2 CLR
21:07 76.2 °F 65.7 °F 30.13 in ESE 1.2 mph 1.2 mph 70% 0.00 in WeatherDisplay:10.37 W/m2 CLR
21:12 75.4 °F 65.3 °F 30.13 in ESE 1.2 mph 1.2 mph 71% 0.00 in WeatherDisplay:10.37 W/m2 CLR
21:17 74.8 °F 65.1 °F 30.13 in ESE 1.2 mph 1.2 mph 72% 0.00 in WeatherDisplay:10.37 W/m2 CLR
21:22 74.5 °F 65.2 °F 30.13 in ESE 1.2 mph 1.2 mph 73% 0.00 in WeatherDisplay:10.37 W/m2 CLR
21:27 74.2 °F 64.9 °F 30.14 in ESE 1.2 mph   73% 0.00 in WeatherDisplay:10.37 W/m2 CLR
21:32 73.9 °F 65.0 °F 30.14 in Calm     74% 0.00 in WeatherDisplay:10.37 W/m2 CLR
21:37 73.6 °F 65.1 °F 30.14 in Calm     75% 0.00 in WeatherDisplay:10.37 W/m2 CLR
21:42 73.3 °F 64.9 °F 30.14 in ESE 2.0 mph 2.0 mph 75% 0.00 in WeatherDisplay:10.37 W/m2 CLR
21:47 73.0 °F 64.9 °F 30.14 in ESE 2.3 mph 2.3 mph 76% 0.00 in WeatherDisplay:10.37 W/m2 CLR
21:52 72.8 °F 64.8 °F 30.14 in ESE 1.2 mph 1.2 mph 76% 0.00 in WeatherDisplay:10.37 W/m2 CLR
21:57 72.6 °F 64.9 °F 30.14 in ESE 1.2 mph 1.2 mph 77% 0.00 in WeatherDisplay:10.37 W/m2 CLR
22:02 72.3 °F 64.6 °F 30.14 in ESE 1.2 mph 1.2 mph 77% 0.00 in WeatherDisplay:10.37 W/m2 CLR
22:07 72.1 °F 65.2 °F 30.15 in ESE 2.3 mph 2.3 mph 79% 0.00 in WeatherDisplay:10.37 W/m2 SCT
22:12 71.9 °F 65.0 °F 30.15 in Calm     79% 0.00 in WeatherDisplay:10.37 W/m2 SCT
22:17 71.5 °F 65.0 °F 30.14 in ESE 2.3 mph 2.3 mph 80% 0.00 in WeatherDisplay:10.37 W/m2 SCT
22:22 71.2 °F 65.0 °F 30.15 in ESE 1.2 mph 1.2 mph 81% 0.00 in WeatherDisplay:10.37 W/m2 SCT
22:27 70.9 °F 64.7 °F 30.15 in Calm     81% 0.00 in WeatherDisplay:10.37 W/m2 SCT
22:32 70.7 °F 64.9 °F 30.15 in Calm     82% 0.00 in WeatherDisplay:10.37 W/m2 SCT
22:37 70.5 °F 64.7 °F 30.15 in Calm     82% 0.00 in WeatherDisplay:10.37 W/m2 SCT
22:42 70.2 °F 64.8 °F 30.15 in ESE 1.2 mph 1.2 mph 83% 0.00 in WeatherDisplay:10.37 W/m2 SCT
22:47 69.9 °F 64.5 °F 30.15 in ESE 1.2 mph 1.2 mph 83% 0.00 in WeatherDisplay:10.37 W/m2 SCT
22:52 69.6 °F 64.5 °F 30.16 in Calm     84% 0.00 in WeatherDisplay:10.37 W/m2 SCT
22:57 69.3 °F 64.2 °F 30.16 in Calm   0.1 mph 84% 0.00 in WeatherDisplay:10.37 W/m2 SCT
23:02 69.1 °F 64.4 °F 30.15 in ESE 1.2 mph   85% 0.00 in WeatherDisplay:10.37 W/m2 SCT
23:07 68.9 °F 64.2 °F 30.15 in Calm     85% 0.00 in WeatherDisplay:10.37 W/m2 CLR
23:12 68.9 °F 64.5 °F 30.15 in ESE 1.0 mph 1.0 mph 86% 0.00 in WeatherDisplay:10.37 W/m2 CLR
23:17 69.0 °F 64.6 °F 30.15 in ESE 3.5 mph 3.5 mph 86% 0.00 in WeatherDisplay:10.37 W/m2 CLR
23:22 69.1 °F 64.7 °F 30.15 in ESE 1.2 mph 1.2 mph 86% 0.00 in WeatherDisplay:10.37 W/m2 CLR
23:27 69.3 °F 64.9 °F 30.15 in ESE 2.3 mph 2.3 mph 86% 0.00 in WeatherDisplay:10.37 W/m2 CLR
23:32 69.1 °F 64.7 °F 30.16 in ESE 1.2 mph 1.2 mph 86% 0.00 in WeatherDisplay:10.37 W/m2 CLR
23:37 69.0 °F 64.6 °F 30.16 in Calm     86% 0.00 in WeatherDisplay:10.37 W/m2 CLR
23:42 68.9 °F 64.2 °F 30.16 in Calm   0.2 mph 85% 0.00 in WeatherDisplay:10.37 W/m2 CLR
23:47 68.5 °F 64.1 °F 30.16 in Calm     86% 0.00 in WeatherDisplay:10.37 W/m2 CLR
23:52 68.2 °F 63.8 °F 30.16 in Calm     86% 0.00 in WeatherDisplay:10.37 W/m2 CLR
23:57 67.8 °F 63.7 °F 30.16 in Calm     87% 0.00 in WeatherDisplay:10.37 W/m2 CLR
Smyth Weather
Compliments of Weather Underground - 3 mb